<?xml version="1.0" encoding="UTF-8" ?>
<gpx version="1.1" xmlns:xsi="http://www.w3.org/2001/XMLSchema-instance" 
    xmlns="http://www.topografix.com/GPX/1/1" 
    xsi:schemaLocation="http://www.topografix.com/GPX/1/1 http://www.topografix.com/GPX/1/1/gpx.xsd" 
    creator="Openrunner - https://www.openrunner.com" >	<trk>
						<name>11266452-Balade Verte - Circuit du bocage bressan - VSS2</name>
						<trkseg>
					<trkpt lat="46.483980" lon="5.242210">
						<ele>208</ele>
						<time>2020-05-07T14:27:57Z</time>
					</trkpt>
					<trkpt lat="46.483890" lon="5.242300">
						<ele>209</ele>
						<time>2020-05-07T14:28:12Z</time>
					</trkpt>
					<trkpt lat="46.483750" lon="5.242620">
						<ele>211</ele>
						<time>2020-05-07T14:28:46Z</time>
					</trkpt>
					<trkpt lat="46.483680" lon="5.242690">
						<ele>211</ele>
						<time>2020-05-07T14:28:58Z</time>
					</trkpt>
					<trkpt lat="46.483570" lon="5.242710">
						<ele>212</ele>
						<time>2020-05-07T14:29:13Z</time>
					</trkpt>
					<trkpt lat="46.483550" lon="5.242770">
						<ele>213</ele>
						<time>2020-05-07T14:29:19Z</time>
					</trkpt>
					<trkpt lat="46.483320" lon="5.242750">
						<ele>214</ele>
						<time>2020-05-07T14:29:49Z</time>
					</trkpt>
					<trkpt lat="46.483280" lon="5.243020">
						<ele>215</ele>
						<time>2020-05-07T14:30:15Z</time>
					</trkpt>
					<trkpt lat="46.483130" lon="5.242820">
						<ele>215</ele>
						<time>2020-05-07T14:30:42Z</time>
					</trkpt>
					<trkpt lat="46.483070" lon="5.242770">
						<ele>215</ele>
						<time>2020-05-07T14:30:51Z</time>
					</trkpt>
					<trkpt lat="46.482280" lon="5.242540">
						<ele>215</ele>
						<time>2020-05-07T14:32:39Z</time>
					</trkpt>
					<trkpt lat="46.482120" lon="5.242520">
						<ele>215</ele>
						<time>2020-05-07T14:33:00Z</time>
					</trkpt>
					<trkpt lat="46.482180" lon="5.242140">
						<ele>214</ele>
						<time>2020-05-07T14:33:36Z</time>
					</trkpt>
					<trkpt lat="46.482190" lon="5.241950">
						<ele>213</ele>
						<time>2020-05-07T14:33:53Z</time>
					</trkpt>
					<trkpt lat="46.482170" lon="5.241770">
						<ele>212</ele>
						<time>2020-05-07T14:34:10Z</time>
					</trkpt>
					<trkpt lat="46.482030" lon="5.241310">
						<ele>208</ele>
						<time>2020-05-07T14:34:56Z</time>
					</trkpt>
					<trkpt lat="46.481960" lon="5.241050">
						<ele>205</ele>
						<time>2020-05-07T14:35:22Z</time>
					</trkpt>
					<trkpt lat="46.481940" lon="5.240790">
						<ele>203</ele>
						<time>2020-05-07T14:35:46Z</time>
					</trkpt>
					<trkpt lat="46.481940" lon="5.240590">
						<ele>202</ele>
						<time>2020-05-07T14:36:05Z</time>
					</trkpt>
					<trkpt lat="46.481950" lon="5.240410">
						<ele>200</ele>
						<time>2020-05-07T14:36:21Z</time>
					</trkpt>
					<trkpt lat="46.481990" lon="5.240240">
						<ele>200</ele>
						<time>2020-05-07T14:36:38Z</time>
					</trkpt>
					<trkpt lat="46.482120" lon="5.239940">
						<ele>198</ele>
						<time>2020-05-07T14:37:10Z</time>
					</trkpt>
					<trkpt lat="46.482180" lon="5.239830">
						<ele>198</ele>
						<time>2020-05-07T14:37:23Z</time>
					</trkpt>
					<trkpt lat="46.482240" lon="5.239760">
						<ele>198</ele>
						<time>2020-05-07T14:37:33Z</time>
					</trkpt>
					<trkpt lat="46.482320" lon="5.239740">
						<ele>198</ele>
						<time>2020-05-07T14:37:44Z</time>
					</trkpt>
					<trkpt lat="46.482890" lon="5.239910">
						<ele>198</ele>
						<time>2020-05-07T14:39:02Z</time>
					</trkpt>
					<trkpt lat="46.482870" lon="5.239620">
						<ele>197</ele>
						<time>2020-05-07T14:39:29Z</time>
					</trkpt>
					<trkpt lat="46.482820" lon="5.239440">
						<ele>196</ele>
						<time>2020-05-07T14:39:46Z</time>
					</trkpt>
					<trkpt lat="46.482770" lon="5.239290">
						<ele>196</ele>
						<time>2020-05-07T14:40:02Z</time>
					</trkpt>
					<trkpt lat="46.482690" lon="5.239170">
						<ele>196</ele>
						<time>2020-05-07T14:40:17Z</time>
					</trkpt>
					<trkpt lat="46.482580" lon="5.239030">
						<ele>195</ele>
						<time>2020-05-07T14:40:37Z</time>
					</trkpt>
					<trkpt lat="46.482000" lon="5.238590">
						<ele>190</ele>
						<time>2020-05-07T14:42:04Z</time>
					</trkpt>
					<trkpt lat="46.481910" lon="5.238550">
						<ele>190</ele>
						<time>2020-05-07T14:42:17Z</time>
					</trkpt>
					<trkpt lat="46.481800" lon="5.238570">
						<ele>189</ele>
						<time>2020-05-07T14:42:31Z</time>
					</trkpt>
					<trkpt lat="46.481730" lon="5.238410">
						<ele>188</ele>
						<time>2020-05-07T14:42:49Z</time>
					</trkpt>
					<trkpt lat="46.481640" lon="5.238280">
						<ele>188</ele>
						<time>2020-05-07T14:43:06Z</time>
					</trkpt>
					<trkpt lat="46.481190" lon="5.237750">
						<ele>187</ele>
						<time>2020-05-07T14:44:23Z</time>
					</trkpt>
					<trkpt lat="46.481100" lon="5.237620">
						<ele>187</ele>
						<time>2020-05-07T14:44:40Z</time>
					</trkpt>
					<trkpt lat="46.481010" lon="5.237480">
						<ele>187</ele>
						<time>2020-05-07T14:44:58Z</time>
					</trkpt>
					<trkpt lat="46.480900" lon="5.237270">
						<ele>187</ele>
						<time>2020-05-07T14:45:22Z</time>
					</trkpt>
					<trkpt lat="46.480770" lon="5.236920">
						<ele>188</ele>
						<time>2020-05-07T14:45:58Z</time>
					</trkpt>
					<trkpt lat="46.480680" lon="5.236560">
						<ele>188</ele>
						<time>2020-05-07T14:46:34Z</time>
					</trkpt>
					<trkpt lat="46.480620" lon="5.236200">
						<ele>189</ele>
						<time>2020-05-07T14:47:08Z</time>
					</trkpt>
					<trkpt lat="46.480600" lon="5.236020">
						<ele>190</ele>
						<time>2020-05-07T14:47:24Z</time>
					</trkpt>
					<trkpt lat="46.480600" lon="5.235570">
						<ele>190</ele>
						<time>2020-05-07T14:48:06Z</time>
					</trkpt>
					<trkpt lat="46.480550" lon="5.233990">
						<ele>188</ele>
						<time>2020-05-07T14:50:31Z</time>
					</trkpt>
					<trkpt lat="46.480500" lon="5.232440">
						<ele>189</ele>
						<time>2020-05-07T14:52:54Z</time>
					</trkpt>
					<trkpt lat="46.480500" lon="5.232140">
						<ele>190</ele>
						<time>2020-05-07T14:53:21Z</time>
					</trkpt>
					<trkpt lat="46.480230" lon="5.232060">
						<ele>191</ele>
						<time>2020-05-07T14:53:58Z</time>
					</trkpt>
					<trkpt lat="46.479440" lon="5.231930">
						<ele>194</ele>
						<time>2020-05-07T14:55:44Z</time>
					</trkpt>
					<trkpt lat="46.479100" lon="5.231800">
						<ele>196</ele>
						<time>2020-05-07T14:56:31Z</time>
					</trkpt>
					<trkpt lat="46.478960" lon="5.231700">
						<ele>197</ele>
						<time>2020-05-07T14:56:52Z</time>
					</trkpt>
					<trkpt lat="46.478750" lon="5.231530">
						<ele>198</ele>
						<time>2020-05-07T14:57:24Z</time>
					</trkpt>
					<trkpt lat="46.478380" lon="5.231160">
						<ele>202</ele>
						<time>2020-05-07T14:58:24Z</time>
					</trkpt>
					<trkpt lat="46.478220" lon="5.231030">
						<ele>203</ele>
						<time>2020-05-07T14:58:48Z</time>
					</trkpt>
					<trkpt lat="46.478100" lon="5.230950">
						<ele>203</ele>
						<time>2020-05-07T14:59:06Z</time>
					</trkpt>
					<trkpt lat="46.477960" lon="5.230880">
						<ele>203</ele>
						<time>2020-05-07T14:59:26Z</time>
					</trkpt>
					<trkpt lat="46.477790" lon="5.230830">
						<ele>203</ele>
						<time>2020-05-07T14:59:49Z</time>
					</trkpt>
					<trkpt lat="46.476750" lon="5.230650">
						<ele>206</ele>
						<time>2020-05-07T15:02:09Z</time>
					</trkpt>
					<trkpt lat="46.475900" lon="5.230490">
						<ele>207</ele>
						<time>2020-05-07T15:04:03Z</time>
					</trkpt>
					<trkpt lat="46.475560" lon="5.230440">
						<ele>207</ele>
						<time>2020-05-07T15:04:49Z</time>
					</trkpt>
					<trkpt lat="46.474330" lon="5.230560">
						<ele>206</ele>
						<time>2020-05-07T15:07:33Z</time>
					</trkpt>
					<trkpt lat="46.474210" lon="5.230590">
						<ele>206</ele>
						<time>2020-05-07T15:07:49Z</time>
					</trkpt>
					<trkpt lat="46.474050" lon="5.230620">
						<ele>205</ele>
						<time>2020-05-07T15:08:11Z</time>
					</trkpt>
					<trkpt lat="46.473950" lon="5.230680">
						<ele>205</ele>
						<time>2020-05-07T15:08:25Z</time>
					</trkpt>
					<trkpt lat="46.473820" lon="5.230800">
						<ele>203</ele>
						<time>2020-05-07T15:08:46Z</time>
					</trkpt>
					<trkpt lat="46.473710" lon="5.230930">
						<ele>202</ele>
						<time>2020-05-07T15:09:05Z</time>
					</trkpt>
					<trkpt lat="46.472690" lon="5.232330">
						<ele>202</ele>
						<time>2020-05-07T15:12:12Z</time>
					</trkpt>
					<trkpt lat="46.472460" lon="5.232580">
						<ele>203</ele>
						<time>2020-05-07T15:12:50Z</time>
					</trkpt>
					<trkpt lat="46.471820" lon="5.233180">
						<ele>205</ele>
						<time>2020-05-07T15:14:32Z</time>
					</trkpt>
					<trkpt lat="46.471720" lon="5.233250">
						<ele>206</ele>
						<time>2020-05-07T15:14:47Z</time>
					</trkpt>
					<trkpt lat="46.471610" lon="5.233300">
						<ele>206</ele>
						<time>2020-05-07T15:15:02Z</time>
					</trkpt>
					<trkpt lat="46.471470" lon="5.233350">
						<ele>206</ele>
						<time>2020-05-07T15:15:21Z</time>
					</trkpt>
					<trkpt lat="46.471270" lon="5.233350">
						<ele>207</ele>
						<time>2020-05-07T15:15:48Z</time>
					</trkpt>
					<trkpt lat="46.470000" lon="5.233120">
						<ele>213</ele>
						<time>2020-05-07T15:18:39Z</time>
					</trkpt>
					<trkpt lat="46.469850" lon="5.233090">
						<ele>212</ele>
						<time>2020-05-07T15:18:59Z</time>
					</trkpt>
					<trkpt lat="46.469660" lon="5.233090">
						<ele>212</ele>
						<time>2020-05-07T15:19:25Z</time>
					</trkpt>
					<trkpt lat="46.468830" lon="5.233190">
						<ele>210</ele>
						<time>2020-05-07T15:21:16Z</time>
					</trkpt>
					<trkpt lat="46.468620" lon="5.233210">
						<ele>210</ele>
						<time>2020-05-07T15:21:44Z</time>
					</trkpt>
					<trkpt lat="46.468400" lon="5.233210">
						<ele>210</ele>
						<time>2020-05-07T15:22:13Z</time>
					</trkpt>
					<trkpt lat="46.468200" lon="5.233200">
						<ele>210</ele>
						<time>2020-05-07T15:22:40Z</time>
					</trkpt>
					<trkpt lat="46.467990" lon="5.233150">
						<ele>211</ele>
						<time>2020-05-07T15:23:08Z</time>
					</trkpt>
					<trkpt lat="46.467600" lon="5.233060">
						<ele>211</ele>
						<time>2020-05-07T15:24:01Z</time>
					</trkpt>
					<trkpt lat="46.467120" lon="5.232910">
						<ele>212</ele>
						<time>2020-05-07T15:25:06Z</time>
					</trkpt>
					<trkpt lat="46.466490" lon="5.232730">
						<ele>213</ele>
						<time>2020-05-07T15:26:32Z</time>
					</trkpt>
					<trkpt lat="46.465640" lon="5.232470">
						<ele>212</ele>
						<time>2020-05-07T15:28:28Z</time>
					</trkpt>
					<trkpt lat="46.465380" lon="5.232430">
						<ele>211</ele>
						<time>2020-05-07T15:29:03Z</time>
					</trkpt>
					<trkpt lat="46.465450" lon="5.231130">
						<ele>202</ele>
						<time>2020-05-07T15:31:03Z</time>
					</trkpt>
					<trkpt lat="46.465520" lon="5.230180">
						<ele>195</ele>
						<time>2020-05-07T15:32:31Z</time>
					</trkpt>
					<trkpt lat="46.465590" lon="5.229520">
						<ele>193</ele>
						<time>2020-05-07T15:33:32Z</time>
					</trkpt>
					<trkpt lat="46.465600" lon="5.229210">
						<ele>192</ele>
						<time>2020-05-07T15:34:01Z</time>
					</trkpt>
					<trkpt lat="46.465600" lon="5.229040">
						<ele>192</ele>
						<time>2020-05-07T15:34:16Z</time>
					</trkpt>
					<trkpt lat="46.465520" lon="5.228720">
						<ele>192</ele>
						<time>2020-05-07T15:34:47Z</time>
					</trkpt>
					<trkpt lat="46.465500" lon="5.228500">
						<ele>192</ele>
						<time>2020-05-07T15:35:08Z</time>
					</trkpt>
					<trkpt lat="46.465510" lon="5.228110">
						<ele>193</ele>
						<time>2020-05-07T15:35:44Z</time>
					</trkpt>
					<trkpt lat="46.465500" lon="5.227870">
						<ele>194</ele>
						<time>2020-05-07T15:36:06Z</time>
					</trkpt>
					<trkpt lat="46.465070" lon="5.226250">
						<ele>201</ele>
						<time>2020-05-07T15:38:45Z</time>
					</trkpt>
					<trkpt lat="46.465020" lon="5.226150">
						<ele>201</ele>
						<time>2020-05-07T15:38:57Z</time>
					</trkpt>
					<trkpt lat="46.465120" lon="5.224700">
						<ele>198</ele>
						<time>2020-05-07T15:41:11Z</time>
					</trkpt>
					<trkpt lat="46.465240" lon="5.223540">
						<ele>195</ele>
						<time>2020-05-07T15:42:59Z</time>
					</trkpt>
					<trkpt lat="46.465250" lon="5.223040">
						<ele>196</ele>
						<time>2020-05-07T15:43:44Z</time>
					</trkpt>
					<trkpt lat="46.465250" lon="5.222660">
						<ele>197</ele>
						<time>2020-05-07T15:44:19Z</time>
					</trkpt>
					<trkpt lat="46.465270" lon="5.222480">
						<ele>198</ele>
						<time>2020-05-07T15:44:36Z</time>
					</trkpt>
					<trkpt lat="46.465350" lon="5.222150">
						<ele>200</ele>
						<time>2020-05-07T15:45:08Z</time>
					</trkpt>
					<trkpt lat="46.465570" lon="5.221410">
						<ele>204</ele>
						<time>2020-05-07T15:46:22Z</time>
					</trkpt>
					<trkpt lat="46.465670" lon="5.220930">
						<ele>207</ele>
						<time>2020-05-07T15:47:09Z</time>
					</trkpt>
					<trkpt lat="46.465740" lon="5.220560">
						<ele>209</ele>
						<time>2020-05-07T15:47:44Z</time>
					</trkpt>
					<trkpt lat="46.465780" lon="5.220310">
						<ele>210</ele>
						<time>2020-05-07T15:48:07Z</time>
					</trkpt>
					<trkpt lat="46.466150" lon="5.220190">
						<ele>209</ele>
						<time>2020-05-07T15:48:58Z</time>
					</trkpt>
					<trkpt lat="46.466290" lon="5.220160">
						<ele>209</ele>
						<time>2020-05-07T15:49:17Z</time>
					</trkpt>
					<trkpt lat="46.466660" lon="5.220140">
						<ele>208</ele>
						<time>2020-05-07T15:50:06Z</time>
					</trkpt>
					<trkpt lat="46.467340" lon="5.220120">
						<ele>204</ele>
						<time>2020-05-07T15:51:37Z</time>
					</trkpt>
					<trkpt lat="46.467510" lon="5.220100">
						<ele>203</ele>
						<time>2020-05-07T15:52:00Z</time>
					</trkpt>
					<trkpt lat="46.467670" lon="5.220060">
						<ele>203</ele>
						<time>2020-05-07T15:52:21Z</time>
					</trkpt>
					<trkpt lat="46.467910" lon="5.219940">
						<ele>201</ele>
						<time>2020-05-07T15:52:55Z</time>
					</trkpt>
					<trkpt lat="46.468020" lon="5.219960">
						<ele>200</ele>
						<time>2020-05-07T15:53:10Z</time>
					</trkpt>
					<trkpt lat="46.468130" lon="5.219990">
						<ele>199</ele>
						<time>2020-05-07T15:53:25Z</time>
					</trkpt>
					<trkpt lat="46.468240" lon="5.220080">
						<ele>198</ele>
						<time>2020-05-07T15:53:42Z</time>
					</trkpt>
					<trkpt lat="46.468350" lon="5.220230">
						<ele>197</ele>
						<time>2020-05-07T15:54:02Z</time>
					</trkpt>
					<trkpt lat="46.468590" lon="5.220720">
						<ele>196</ele>
						<time>2020-05-07T15:54:57Z</time>
					</trkpt>
					<trkpt lat="46.468690" lon="5.220930">
						<ele>195</ele>
						<time>2020-05-07T15:55:21Z</time>
					</trkpt>
					<trkpt lat="46.468790" lon="5.221120">
						<ele>195</ele>
						<time>2020-05-07T15:55:43Z</time>
					</trkpt>
					<trkpt lat="46.468880" lon="5.221210">
						<ele>195</ele>
						<time>2020-05-07T15:55:57Z</time>
					</trkpt>
					<trkpt lat="46.468990" lon="5.221260">
						<ele>195</ele>
						<time>2020-05-07T15:56:13Z</time>
					</trkpt>
					<trkpt lat="46.469090" lon="5.221290">
						<ele>195</ele>
						<time>2020-05-07T15:56:26Z</time>
					</trkpt>
					<trkpt lat="46.470420" lon="5.221260">
						<ele>202</ele>
						<time>2020-05-07T15:59:24Z</time>
					</trkpt>
					<trkpt lat="46.470720" lon="5.221350">
						<ele>203</ele>
						<time>2020-05-07T16:00:05Z</time>
					</trkpt>
					<trkpt lat="46.472200" lon="5.221890">
						<ele>207</ele>
						<time>2020-05-07T16:03:28Z</time>
					</trkpt>
					<trkpt lat="46.473020" lon="5.222200">
						<ele>208</ele>
						<time>2020-05-07T16:05:21Z</time>
					</trkpt>
					<trkpt lat="46.473070" lon="5.221950">
						<ele>210</ele>
						<time>2020-05-07T16:05:45Z</time>
					</trkpt>
					<trkpt lat="46.473150" lon="5.221700">
						<ele>212</ele>
						<time>2020-05-07T16:06:11Z</time>
					</trkpt>
					<trkpt lat="46.473190" lon="5.221490">
						<ele>213</ele>
						<time>2020-05-07T16:06:31Z</time>
					</trkpt>
					<trkpt lat="46.473170" lon="5.221190">
						<ele>214</ele>
						<time>2020-05-07T16:06:58Z</time>
					</trkpt>
					<trkpt lat="46.473280" lon="5.220040">
						<ele>216</ele>
						<time>2020-05-07T16:08:45Z</time>
					</trkpt>
					<trkpt lat="46.473440" lon="5.219060">
						<ele>214</ele>
						<time>2020-05-07T16:10:18Z</time>
					</trkpt>
					<trkpt lat="46.473460" lon="5.218850">
						<ele>213</ele>
						<time>2020-05-07T16:10:37Z</time>
					</trkpt>
					<trkpt lat="46.473450" lon="5.218730">
						<ele>213</ele>
						<time>2020-05-07T16:10:48Z</time>
					</trkpt>
					<trkpt lat="46.473370" lon="5.218480">
						<ele>213</ele>
						<time>2020-05-07T16:11:14Z</time>
					</trkpt>
					<trkpt lat="46.473330" lon="5.218320">
						<ele>213</ele>
						<time>2020-05-07T16:11:29Z</time>
					</trkpt>
					<trkpt lat="46.473330" lon="5.217370">
						<ele>214</ele>
						<time>2020-05-07T16:12:57Z</time>
					</trkpt>
					<trkpt lat="46.473450" lon="5.215520">
						<ele>215</ele>
						<time>2020-05-07T16:15:47Z</time>
					</trkpt>
					<trkpt lat="46.473430" lon="5.215360">
						<ele>215</ele>
						<time>2020-05-07T16:16:02Z</time>
					</trkpt>
					<trkpt lat="46.473480" lon="5.215220">
						<ele>215</ele>
						<time>2020-05-07T16:16:17Z</time>
					</trkpt>
					<trkpt lat="46.473550" lon="5.214720">
						<ele>216</ele>
						<time>2020-05-07T16:17:04Z</time>
					</trkpt>
					<trkpt lat="46.473590" lon="5.214410">
						<ele>216</ele>
						<time>2020-05-07T16:17:33Z</time>
					</trkpt>
					<trkpt lat="46.473640" lon="5.213680">
						<ele>215</ele>
						<time>2020-05-07T16:18:40Z</time>
					</trkpt>
					<trkpt lat="46.473680" lon="5.213160">
						<ele>213</ele>
						<time>2020-05-07T16:19:28Z</time>
					</trkpt>
					<trkpt lat="46.473740" lon="5.212750">
						<ele>211</ele>
						<time>2020-05-07T16:20:07Z</time>
					</trkpt>
					<trkpt lat="46.473890" lon="5.212100">
						<ele>210</ele>
						<time>2020-05-07T16:21:10Z</time>
					</trkpt>
					<trkpt lat="46.474250" lon="5.210900">
						<ele>212</ele>
						<time>2020-05-07T16:23:10Z</time>
					</trkpt>
					<trkpt lat="46.474400" lon="5.210980">
						<ele>211</ele>
						<time>2020-05-07T16:23:31Z</time>
					</trkpt>
					<trkpt lat="46.474660" lon="5.211150">
						<ele>209</ele>
						<time>2020-05-07T16:24:09Z</time>
					</trkpt>
					<trkpt lat="46.475120" lon="5.211530">
						<ele>206</ele>
						<time>2020-05-07T16:25:20Z</time>
					</trkpt>
					<trkpt lat="46.475230" lon="5.211610">
						<ele>206</ele>
						<time>2020-05-07T16:25:36Z</time>
					</trkpt>
					<trkpt lat="46.475410" lon="5.211760">
						<ele>206</ele>
						<time>2020-05-07T16:26:04Z</time>
					</trkpt>
					<trkpt lat="46.475480" lon="5.211830">
						<ele>206</ele>
						<time>2020-05-07T16:26:15Z</time>
					</trkpt>
					<trkpt lat="46.475510" lon="5.211940">
						<ele>206</ele>
						<time>2020-05-07T16:26:26Z</time>
					</trkpt>
					<trkpt lat="46.475540" lon="5.212370">
						<ele>206</ele>
						<time>2020-05-07T16:27:06Z</time>
					</trkpt>
					<trkpt lat="46.475630" lon="5.213000">
						<ele>207</ele>
						<time>2020-05-07T16:28:05Z</time>
					</trkpt>
					<trkpt lat="46.475680" lon="5.213660">
						<ele>207</ele>
						<time>2020-05-07T16:29:06Z</time>
					</trkpt>
					<trkpt lat="46.475700" lon="5.213820">
						<ele>207</ele>
						<time>2020-05-07T16:29:21Z</time>
					</trkpt>
					<trkpt lat="46.475800" lon="5.214200">
						<ele>206</ele>
						<time>2020-05-07T16:29:58Z</time>
					</trkpt>
					<trkpt lat="46.476210" lon="5.215660">
						<ele>208</ele>
						<time>2020-05-07T16:32:23Z</time>
					</trkpt>
					<trkpt lat="46.476340" lon="5.215910">
						<ele>208</ele>
						<time>2020-05-07T16:32:52Z</time>
					</trkpt>
					<trkpt lat="46.476710" lon="5.216590">
						<ele>209</ele>
						<time>2020-05-07T16:34:12Z</time>
					</trkpt>
					<trkpt lat="46.476810" lon="5.216710">
						<ele>209</ele>
						<time>2020-05-07T16:34:29Z</time>
					</trkpt>
					<trkpt lat="46.476870" lon="5.216750">
						<ele>209</ele>
						<time>2020-05-07T16:34:38Z</time>
					</trkpt>
					<trkpt lat="46.477170" lon="5.216830">
						<ele>209</ele>
						<time>2020-05-07T16:35:19Z</time>
					</trkpt>
					<trkpt lat="46.477290" lon="5.216860">
						<ele>209</ele>
						<time>2020-05-07T16:35:35Z</time>
					</trkpt>
					<trkpt lat="46.478480" lon="5.217170">
						<ele>206</ele>
						<time>2020-05-07T16:38:16Z</time>
					</trkpt>
					<trkpt lat="46.479430" lon="5.217400">
						<ele>204</ele>
						<time>2020-05-07T16:40:25Z</time>
					</trkpt>
					<trkpt lat="46.479490" lon="5.217350">
						<ele>204</ele>
						<time>2020-05-07T16:40:34Z</time>
					</trkpt>
					<trkpt lat="46.479620" lon="5.217320">
						<ele>204</ele>
						<time>2020-05-07T16:40:52Z</time>
					</trkpt>
					<trkpt lat="46.480190" lon="5.217270">
						<ele>202</ele>
						<time>2020-05-07T16:42:08Z</time>
					</trkpt>
					<trkpt lat="46.480430" lon="5.217280">
						<ele>201</ele>
						<time>2020-05-07T16:42:40Z</time>
					</trkpt>
					<trkpt lat="46.480680" lon="5.217360">
						<ele>199</ele>
						<time>2020-05-07T16:43:14Z</time>
					</trkpt>
					<trkpt lat="46.480890" lon="5.217350">
						<ele>198</ele>
						<time>2020-05-07T16:43:42Z</time>
					</trkpt>
					<trkpt lat="46.481030" lon="5.217320">
						<ele>197</ele>
						<time>2020-05-07T16:44:01Z</time>
					</trkpt>
					<trkpt lat="46.481260" lon="5.217240">
						<ele>197</ele>
						<time>2020-05-07T16:44:32Z</time>
					</trkpt>
					<trkpt lat="46.481430" lon="5.217200">
						<ele>196</ele>
						<time>2020-05-07T16:44:55Z</time>
					</trkpt>
					<trkpt lat="46.481630" lon="5.217180">
						<ele>196</ele>
						<time>2020-05-07T16:45:22Z</time>
					</trkpt>
					<trkpt lat="46.481840" lon="5.217280">
						<ele>196</ele>
						<time>2020-05-07T16:45:52Z</time>
					</trkpt>
					<trkpt lat="46.482350" lon="5.217420">
						<ele>197</ele>
						<time>2020-05-07T16:47:01Z</time>
					</trkpt>
					<trkpt lat="46.482550" lon="5.217460">
						<ele>197</ele>
						<time>2020-05-07T16:47:28Z</time>
					</trkpt>
					<trkpt lat="46.482910" lon="5.217560">
						<ele>198</ele>
						<time>2020-05-07T16:48:17Z</time>
					</trkpt>
					<trkpt lat="46.483030" lon="5.217670">
						<ele>198</ele>
						<time>2020-05-07T16:48:36Z</time>
					</trkpt>
					<trkpt lat="46.483110" lon="5.217830">
						<ele>198</ele>
						<time>2020-05-07T16:48:54Z</time>
					</trkpt>
					<trkpt lat="46.483130" lon="5.218260">
						<ele>199</ele>
						<time>2020-05-07T16:49:33Z</time>
					</trkpt>
					<trkpt lat="46.483170" lon="5.218430">
						<ele>200</ele>
						<time>2020-05-07T16:49:50Z</time>
					</trkpt>
					<trkpt lat="46.483310" lon="5.218800">
						<ele>201</ele>
						<time>2020-05-07T16:50:29Z</time>
					</trkpt>
					<trkpt lat="46.483340" lon="5.218910">
						<ele>201</ele>
						<time>2020-05-07T16:50:40Z</time>
					</trkpt>
					<trkpt lat="46.483370" lon="5.219150">
						<ele>202</ele>
						<time>2020-05-07T16:51:02Z</time>
					</trkpt>
					<trkpt lat="46.483400" lon="5.219290">
						<ele>202</ele>
						<time>2020-05-07T16:51:16Z</time>
					</trkpt>
					<trkpt lat="46.483470" lon="5.219450">
						<ele>202</ele>
						<time>2020-05-07T16:51:33Z</time>
					</trkpt>
					<trkpt lat="46.483610" lon="5.219660">
						<ele>203</ele>
						<time>2020-05-07T16:52:00Z</time>
					</trkpt>
					<trkpt lat="46.483640" lon="5.219760">
						<ele>203</ele>
						<time>2020-05-07T16:52:10Z</time>
					</trkpt>
					<trkpt lat="46.483660" lon="5.219860">
						<ele>202</ele>
						<time>2020-05-07T16:52:19Z</time>
					</trkpt>
					<trkpt lat="46.483670" lon="5.220100">
						<ele>202</ele>
						<time>2020-05-07T16:52:42Z</time>
					</trkpt>
					<trkpt lat="46.483620" lon="5.221030">
						<ele>202</ele>
						<time>2020-05-07T16:54:07Z</time>
					</trkpt>
					<trkpt lat="46.483450" lon="5.222210">
						<ele>208</ele>
						<time>2020-05-07T16:55:58Z</time>
					</trkpt>
					<trkpt lat="46.483650" lon="5.222280">
						<ele>208</ele>
						<time>2020-05-07T16:56:25Z</time>
					</trkpt>
					<trkpt lat="46.483840" lon="5.222390">
						<ele>208</ele>
						<time>2020-05-07T16:56:53Z</time>
					</trkpt>
					<trkpt lat="46.483980" lon="5.222480">
						<ele>208</ele>
						<time>2020-05-07T16:57:13Z</time>
					</trkpt>
					<trkpt lat="46.484080" lon="5.222570">
						<ele>208</ele>
						<time>2020-05-07T16:57:29Z</time>
					</trkpt>
					<trkpt lat="46.484260" lon="5.222780">
						<ele>208</ele>
						<time>2020-05-07T16:58:00Z</time>
					</trkpt>
					<trkpt lat="46.484700" lon="5.223360">
						<ele>210</ele>
						<time>2020-05-07T16:59:19Z</time>
					</trkpt>
					<trkpt lat="46.484840" lon="5.223510">
						<ele>210</ele>
						<time>2020-05-07T16:59:42Z</time>
					</trkpt>
					<trkpt lat="46.484970" lon="5.223620">
						<ele>210</ele>
						<time>2020-05-07T17:00:02Z</time>
					</trkpt>
					<trkpt lat="46.485400" lon="5.223890">
						<ele>210</ele>
						<time>2020-05-07T17:01:05Z</time>
					</trkpt>
					<trkpt lat="46.485620" lon="5.224040">
						<ele>209</ele>
						<time>2020-05-07T17:01:37Z</time>
					</trkpt>
					<trkpt lat="46.486390" lon="5.224740">
						<ele>207</ele>
						<time>2020-05-07T17:03:38Z</time>
					</trkpt>
					<trkpt lat="46.486760" lon="5.225200">
						<ele>206</ele>
						<time>2020-05-07T17:04:43Z</time>
					</trkpt>
					<trkpt lat="46.486910" lon="5.225330">
						<ele>206</ele>
						<time>2020-05-07T17:05:07Z</time>
					</trkpt>
					<trkpt lat="46.487080" lon="5.225440">
						<ele>205</ele>
						<time>2020-05-07T17:05:32Z</time>
					</trkpt>
					<trkpt lat="46.488530" lon="5.226260">
						<ele>207</ele>
						<time>2020-05-07T17:08:59Z</time>
					</trkpt>
					<trkpt lat="46.489040" lon="5.226560">
						<ele>208</ele>
						<time>2020-05-07T17:10:13Z</time>
					</trkpt>
					<trkpt lat="46.488910" lon="5.227030">
						<ele>207</ele>
						<time>2020-05-07T17:10:59Z</time>
					</trkpt>
					<trkpt lat="46.488790" lon="5.227550">
						<ele>205</ele>
						<time>2020-05-07T17:11:50Z</time>
					</trkpt>
					<trkpt lat="46.488470" lon="5.228450">
						<ele>200</ele>
						<time>2020-05-07T17:13:23Z</time>
					</trkpt>
					<trkpt lat="46.488210" lon="5.229390">
						<ele>195</ele>
						<time>2020-05-07T17:14:56Z</time>
					</trkpt>
					<trkpt lat="46.487750" lon="5.231360">
						<ele>188</ele>
						<time>2020-05-07T17:18:07Z</time>
					</trkpt>
					<trkpt lat="46.487710" lon="5.231490">
						<ele>187</ele>
						<time>2020-05-07T17:18:20Z</time>
					</trkpt>
					<trkpt lat="46.487760" lon="5.231630">
						<ele>187</ele>
						<time>2020-05-07T17:18:34Z</time>
					</trkpt>
					<trkpt lat="46.487810" lon="5.232050">
						<ele>188</ele>
						<time>2020-05-07T17:19:14Z</time>
					</trkpt>
					<trkpt lat="46.487840" lon="5.232100">
						<ele>188</ele>
						<time>2020-05-07T17:19:20Z</time>
					</trkpt>
					<trkpt lat="46.488050" lon="5.232170">
						<ele>188</ele>
						<time>2020-05-07T17:19:48Z</time>
					</trkpt>
					<trkpt lat="46.488410" lon="5.232370">
						<ele>189</ele>
						<time>2020-05-07T17:20:40Z</time>
					</trkpt>
					<trkpt lat="46.488520" lon="5.232540">
						<ele>189</ele>
						<time>2020-05-07T17:21:01Z</time>
					</trkpt>
					<trkpt lat="46.488380" lon="5.233010">
						<ele>188</ele>
						<time>2020-05-07T17:21:48Z</time>
					</trkpt>
					<trkpt lat="46.488220" lon="5.233420">
						<ele>187</ele>
						<time>2020-05-07T17:22:32Z</time>
					</trkpt>
					<trkpt lat="46.487940" lon="5.234020">
						<ele>186</ele>
						<time>2020-05-07T17:23:38Z</time>
					</trkpt>
					<trkpt lat="46.487730" lon="5.234350">
						<ele>186</ele>
						<time>2020-05-07T17:24:20Z</time>
					</trkpt>
					<trkpt lat="46.487550" lon="5.234640">
						<ele>186</ele>
						<time>2020-05-07T17:24:55Z</time>
					</trkpt>
					<trkpt lat="46.487450" lon="5.234750">
						<ele>187</ele>
						<time>2020-05-07T17:25:12Z</time>
					</trkpt>
					<trkpt lat="46.487330" lon="5.234780">
						<ele>187</ele>
						<time>2020-05-07T17:25:28Z</time>
					</trkpt>
					<trkpt lat="46.487210" lon="5.234830">
						<ele>187</ele>
						<time>2020-05-07T17:25:45Z</time>
					</trkpt>
					<trkpt lat="46.487070" lon="5.234970">
						<ele>187</ele>
						<time>2020-05-07T17:26:08Z</time>
					</trkpt>
					<trkpt lat="46.486970" lon="5.235160">
						<ele>187</ele>
						<time>2020-05-07T17:26:30Z</time>
					</trkpt>
					<trkpt lat="46.486840" lon="5.235620">
						<ele>187</ele>
						<time>2020-05-07T17:27:15Z</time>
					</trkpt>
					<trkpt lat="46.486790" lon="5.235910">
						<ele>187</ele>
						<time>2020-05-07T17:27:43Z</time>
					</trkpt>
					<trkpt lat="46.486780" lon="5.236360">
						<ele>187</ele>
						<time>2020-05-07T17:28:24Z</time>
					</trkpt>
					<trkpt lat="46.486740" lon="5.236670">
						<ele>187</ele>
						<time>2020-05-07T17:28:53Z</time>
					</trkpt>
					<trkpt lat="46.486620" lon="5.237190">
						<ele>186</ele>
						<time>2020-05-07T17:29:44Z</time>
					</trkpt>
					<trkpt lat="46.486530" lon="5.237480">
						<ele>186</ele>
						<time>2020-05-07T17:30:13Z</time>
					</trkpt>
					<trkpt lat="46.486420" lon="5.237660">
						<ele>186</ele>
						<time>2020-05-07T17:30:35Z</time>
					</trkpt>
					<trkpt lat="46.486320" lon="5.237860">
						<ele>187</ele>
						<time>2020-05-07T17:30:58Z</time>
					</trkpt>
					<trkpt lat="46.485640" lon="5.239100">
						<ele>187</ele>
						<time>2020-05-07T17:33:23Z</time>
					</trkpt>
					<trkpt lat="46.484900" lon="5.240470">
						<ele>192</ele>
						<time>2020-05-07T17:36:03Z</time>
					</trkpt>
					<trkpt lat="46.484250" lon="5.241690">
						<ele>203</ele>
						<time>2020-05-07T17:38:25Z</time>
					</trkpt>
					<trkpt lat="46.483980" lon="5.242210">
						<ele>208</ele>
						<time>2020-05-07T17:39:25Z</time>
					</trkpt>
					</trkseg>
				</trk>
			</gpx>